KINT

Smith Reynolds Airport

Winston Salem, North Carolina, USA
METAR KINT 250054Z 08003KT 10SM CLR 24/17 A3017 RMK AO2 SLP205 T02390167
Observed Flight Rules
May-25 @ 00:54 UTC (15 minutes ago) Visual Flight Rules
Wind Visibility Clouds
80° at 3 knots 10 miles
  • Clear skies
Temperatures Readings
Current 24°C / 75°F
Dewpoint 17°C / 63°F
Humidity 65%
Altimeter 30.17" Hg
Pressure 1020.5 hPa
Elevation 291
METAR KINT 250054Z 08003KT 10SM CLR 24/17 A3017 RMK AO2 SLP205 T02390167
Observed Flight Rules
May-25 @ 00:54 UTC
(15 minutes ago)
VFR
Wind Visibility
80° at 3 knots 10 miles
Clouds
  • Clear skies
Temperature Dewpoint
24°C / 75°F 17°C / 63°F
Humidity Altimeter Pressure
65% 30.17" Hg 1020.5 hPa